Le Commodore — FPNE — position and weather

sailwx.info

Track history (hours):
 
Tides and Currents Weather Stations Pressure Air Temp Water Temp Dewpoint Dewpoint Depression Visibility Wind Speed Wind Dir Waves Ship Positions

Le Commodore

Last reported at 2018-Feb-19 10:05 UTC. Time now 2018-Feb-19 16:04 UTC.
Position N 47°48' W 004°17'.

Length 15 m.

Type: Other ship. MMSI: 228893000.

Date/timePositionNaut miles runAvg speedWind from/ knotsBaromVisibWave heightAir tempDewpointWater temp
2018-Feb-19 10:05N 47°48' W 004°17'0 0.0
2018-Feb-19 10:00N 47°48' W 004°17'0 0.0
2018-Feb-19 06:52N 47°48' W 004°17'  
2018-Feb-16 09:37N 47°48' W 004°17'0 0.0
2018-Feb-16 08:07N 47°48' W 004°17'0 0.0
2018-Feb-16 07:03N 47°48' W 004°17'1 0.0
2018-Feb-15 16:20N 47°47' W 004°17'3 8.9
2018-Feb-15 15:58N 47°46' W 004°21'8 7.9
2018-Feb-15 15:01N 47°41' W 004°30'0 1.2
2018-Feb-15 14:50N 47°40' W 004°30'2 3.3
2018-Feb-15 14:22N 47°40' W 004°33'3 3.2
2018-Feb-15 13:30N 47°41' W 004°36'2 2.4
2018-Feb-15 12:47N 47°42' W 004°39'1 3.1
2018-Feb-15 12:29N 47°42' W 004°40'2 3.1
2018-Feb-15 11:56N 47°42' W 004°42'2 3.2
2018-Feb-15 11:18N 47°41' W 004°45'1 2.9
2018-Feb-15 10:56N 47°41' W 004°43'1 3.2
2018-Feb-15 10:28N 47°42' W 004°41'0 1.0
2018-Feb-15 09:59N 47°42' W 004°41'2 3.2
2018-Feb-15 09:23N 47°41' W 004°43'1 3.2
2018-Feb-15 08:58N 47°40' W 004°45'2 2.6
2018-Feb-15 08:13N 47°41' W 004°43'2 3.2
2018-Feb-15 07:44N 47°42' W 004°40'1 3.2
2018-Feb-15 07:30N 47°42' W 004°39'2 3.2
2018-Feb-15 06:46N 47°41' W 004°36'3 7.7
2018-Feb-15 06:24N 47°42' W 004°32'3 7.7
2018-Feb-15 05:57N 47°44' W 004°28'4 7.6
2018-Feb-15 05:27N 47°45' W 004°23'4 7.2
2018-Feb-15 04:56N 47°47' W 004°18'  
2018-Feb-12 16:03N 47°47' W 004°17'1 8.4
2018-Feb-12 15:53N 47°46' W 004°17'11 2.1
2018-Feb-12 10:30N 47°37' W 004°26'3 1.0
2018-Feb-12 07:17N 47°38' W 004°22'1 3.4
2018-Feb-12 06:59N 47°39' W 004°21'3 6.2
2018-Feb-12 06:26N 47°42' W 004°20'4 7.3
2018-Feb-12 05:54N 47°46' W 004°18'  
Track history (hours):
 
Tides and Currents Weather Stations Pressure Air Temp Water Temp Dewpoint Dewpoint Depression Visibility Wind Speed Wind Dir Waves Ship Positions

Le Commodore

Last reported at 2018-Feb-19 10:05 UTC. Time now 2018-Feb-19 16:05 UTC.
Position N 47°48' W 004°17'.

Length 15 m.

Type: Other ship. MMSI: 228893000.

Date/timePositionNaut miles runAvg speedWind from/ knotsBaromVisibWave heightAir tempDewpointWater temp
2018-Feb-19 10:05N 47°48' W 004°17'0 0.0
2018-Feb-19 10:00N 47°48' W 004°17'0 0.0
2018-Feb-19 06:52N 47°48' W 004°17'  
2018-Feb-16 09:37N 47°48' W 004°17'0 0.0
2018-Feb-16 08:07N 47°48' W 004°17'0 0.0
2018-Feb-16 07:03N 47°48' W 004°17'1 0.0
2018-Feb-15 16:20N 47°47' W 004°17'3 8.9
2018-Feb-15 15:58N 47°46' W 004°21'8 7.9
2018-Feb-15 15:01N 47°41' W 004°30'0 1.2
2018-Feb-15 14:50N 47°40' W 004°30'2 3.3
2018-Feb-15 14:22N 47°40' W 004°33'3 3.2
2018-Feb-15 13:30N 47°41' W 004°36'2 2.4
2018-Feb-15 12:47N 47°42' W 004°39'1 3.1
2018-Feb-15 12:29N 47°42' W 004°40'2 3.1
2018-Feb-15 11:56N 47°42' W 004°42'2 3.2
2018-Feb-15 11:18N 47°41' W 004°45'1 2.9
2018-Feb-15 10:56N 47°41' W 004°43'1 3.2
2018-Feb-15 10:28N 47°42' W 004°41'0 1.0
2018-Feb-15 09:59N 47°42' W 004°41'2 3.2
2018-Feb-15 09:23N 47°41' W 004°43'1 3.2
2018-Feb-15 08:58N 47°40' W 004°45'2 2.6
2018-Feb-15 08:13N 47°41' W 004°43'2 3.2
2018-Feb-15 07:44N 47°42' W 004°40'1 3.2
2018-Feb-15 07:30N 47°42' W 004°39'2 3.2
2018-Feb-15 06:46N 47°41' W 004°36'3 7.7
2018-Feb-15 06:24N 47°42' W 004°32'3 7.7
2018-Feb-15 05:57N 47°44' W 004°28'4 7.6
2018-Feb-15 05:27N 47°45' W 004°23'4 7.2
2018-Feb-15 04:56N 47°47' W 004°18'  
2018-Feb-12 16:03N 47°47' W 004°17'1 8.4
2018-Feb-12 15:53N 47°46' W 004°17'11 2.1
2018-Feb-12 10:30N 47°37' W 004°26'3 1.0
2018-Feb-12 07:17N 47°38' W 004°22'1 3.4
2018-Feb-12 06:59N 47°39' W 004°21'3 6.2
2018-Feb-12 06:26N 47°42' W 004°20'4 7.3
2018-Feb-12 05:54N 47°46' W 004°18'  

Dump ship's entire track history